This is the latest recevied weather packets stored in our database for station/object VA3PC-13. If no packets are shown the sender has not sent any weather packets the latest 10 day(s).
| Time | Temp. | Humidity | Pressure | Rain* | Wind** | Luminosity | Snow |
|---|---|---|---|---|---|---|---|
| 1777410319 | 11.11° C | 97% | 978.4 hPa | 0 mm | - | 70 W/m² | - |
| 1777408519 | 11.67° C | 97% | 977.8 hPa | 0 mm | - | 71 W/m² | - |
| 1777398319 | 11.11° C | 96% | 976.6 hPa | 0 mm | - | 132 W/m² | - |
| 1777396537 | 11.11° C | 94% | 976.4 hPa | 0 mm | - | 230 W/m² | - |
| 1777394117 | 11.11° C | 95% | 976.5 hPa | 0 mm | - | 245 W/m² | - |
| 1777389918 | 10.56° C | 94% | 977 hPa | 2.54 mm | - | 35 W/m² | - |
| 1777388158 | 10° C | 95% | 976.9 hPa | 6.6 mm | - | 123 W/m² | - |
| 1777385119 | 10° C | 95% | 977.4 hPa | 9.4 mm | - | 31 W/m² | - |
| 1777382719 | 10.56° C | 91% | 977.8 hPa | 3.81 mm | - | 38 W/m² | - |
| 1777380357 | 15° C | 56% | 977.6 hPa | 0 mm | - | 34 W/m² | - |
| 1777378517 | 15° C | 54% | 977.2 hPa | 0 mm | - | 32 W/m² | - |
| 1777376718 | 15.56° C | 51% | 977.1 hPa | 0 mm | - | 39 W/m² | - |
| 1777373119 | 15.56° C | 48% | 976.2 hPa | 0 mm | - | 7 W/m² | - |
| 1777365918 | 15.56° C | 46% | 978.9 hPa | 0 mm | - | 0 W/m² | - |
| 1777359939 | 15° C | 49% | 981.3 hPa | 0 mm | - | 0 W/m² | - |
| 1777358117 | 13.33° C | 51% | 981.4 hPa | 0 mm | - | 0 W/m² | - |
| 1777346117 | 15° C | 46% | 984.9 hPa | 0 mm | - | 0 W/m² | - |
| 1777340118 | 15.56° C | 44% | 986.5 hPa | 0 mm | - | 0 W/m² | - |
| 1777338918 | 16.11° C | 45% | 986.8 hPa | 0 mm | - | 0 W/m² | - |
| 1777335920 | 18.33° C | 39% | 986.9 hPa | 0 mm | - | 2 W/m² | - |
| 1777334119 | 19.44° C | 38% | 987 hPa | 0 mm | - | 16 W/m² | - |
| 1777329920 | 21.67° C | 32% | 987.6 hPa | 0 mm | - | 46 W/m² | - |
| 1777328717 | 22.22° C | 30% | 987.7 hPa | 0 mm | - | 50 W/m² | - |
| 1777325719 | 23.33° C | 30% | 988 hPa | 0 mm | - | 69 W/m² | - |
| 1777319740 | 23.33° C | 30% | 989.1 hPa | 0.25 mm | - | 526 W/m² | - |
* Rain latest hour (hover to see other rain measurements)
** Current wind speed in m/s (hover to see current wind gust speed)